createdAt,value
2017-05-09T00:00:08.932Z,942.9
2017-05-09T00:01:17.059Z,942.8
2017-05-09T00:02:25.162Z,942.8
2017-05-09T00:03:33.195Z,942.8
2017-05-09T00:04:41.290Z,942.9
2017-05-09T00:05:55.634Z,942.9
2017-05-09T00:06:57.531Z,942.9
2017-05-09T00:08:05.667Z,942.9
2017-05-09T00:09:13.753Z,942.9
2017-05-09T00:10:21.783Z,942.9
2017-05-09T00:11:29.809Z,942.9
2017-05-09T00:12:37.896Z,942.9
2017-05-09T00:13:46.040Z,942.9
2017-05-09T00:14:54.068Z,942.9
2017-05-09T00:16:02.156Z,942.9
2017-05-09T00:17:10.249Z,942.9
2017-05-09T00:18:18.343Z,942.9
2017-05-09T00:19:26.486Z,942.9
2017-05-09T00:20:34.517Z,942.9
2017-05-09T00:21:42.605Z,942.9
2017-05-09T00:22:50.702Z,942.9
2017-05-09T00:23:58.800Z,942.8
2017-05-09T00:25:06.986Z,942.9
2017-05-09T00:26:14.952Z,942.8
2017-05-09T00:27:23.040Z,942.9
2017-05-09T00:28:31.125Z,942.9
2017-05-09T00:29:39.285Z,942.8
2017-05-09T00:30:47.419Z,942.8
2017-05-09T00:31:55.387Z,942.8
2017-05-09T00:33:03.477Z,942.8
2017-05-09T00:34:11.559Z,942.8
2017-05-09T00:35:19.647Z,942.8
2017-05-09T00:36:27.792Z,942.7
2017-05-09T00:37:35.822Z,942.8
2017-05-09T00:38:43.911Z,942.7
2017-05-09T00:39:53.143Z,942.7
2017-05-09T00:41:01.365Z,942.8
2017-05-09T00:42:08.293Z,942.7
2017-05-09T00:43:16.257Z,942.7
2017-05-09T00:44:24.382Z,942.7
2017-05-09T00:45:32.430Z,942.8
2017-05-09T00:46:40.601Z,942.7
2017-05-09T00:47:48.693Z,942.7
2017-05-09T00:48:56.691Z,942.7
2017-05-09T00:50:04.778Z,942.7
2017-05-09T00:51:12.866Z,942.7
2017-05-09T00:52:20.957Z,942.7
2017-05-09T00:53:29.158Z,942.7
2017-05-09T00:54:37.123Z,942.7
2017-05-09T00:55:45.211Z,942.7
2017-05-09T00:56:53.421Z,942.7
2017-05-09T00:58:01.387Z,942.6
2017-05-09T00:59:09.535Z,942.6
2017-05-09T01:00:17.564Z,942.6
2017-05-09T01:01:25.648Z,942.6
2017-05-09T01:02:33.734Z,942.6
2017-05-09T01:03:41.973Z,942.6
2017-05-09T01:04:50.027Z,942.6
2017-05-09T01:05:57.996Z,942.6
2017-05-09T01:07:06.084Z,942.6
2017-05-09T01:08:14.169Z,942.5
2017-05-09T01:09:22.289Z,942.6
2017-05-09T01:10:30.465Z,942.6
2017-05-09T01:11:38.435Z,942.5
2017-05-09T01:12:46.641Z,942.5
2017-05-09T01:13:54.608Z,942.5
2017-05-09T01:15:02.695Z,942.5
2017-05-09T01:16:10.837Z,942.5
2017-05-09T01:17:18.871Z,942.5
2017-05-09T01:18:26.958Z,942.5
2017-05-09T01:19:35.050Z,942.5
2017-05-09T01:20:43.309Z,942.5
2017-05-09T01:21:51.336Z,942.5
2017-05-09T01:22:59.301Z,942.5
2017-05-09T01:24:07.389Z,942.5
2017-05-09T01:25:15.477Z,942.5
2017-05-09T01:26:23.612Z,942.5
2017-05-09T01:27:31.824Z,942.5
2017-05-09T01:28:39.791Z,942.5
2017-05-09T01:29:47.825Z,942.5
2017-05-09T01:30:55.909Z,942.5
2017-05-09T01:32:03.998Z,942.4
2017-05-09T01:33:12.202Z,942.4
2017-05-09T01:34:20.168Z,942.5
2017-05-09T01:35:28.256Z,942.5
2017-05-09T01:36:36.342Z,942.5
2017-05-09T01:37:44.634Z,942.5
2017-05-09T01:38:52.646Z,942.5
2017-05-09T01:40:00.612Z,942.5
2017-05-09T01:41:08.706Z,942.5
2017-05-09T01:42:16.787Z,942.5
2017-05-09T01:43:24.876Z,942.5
2017-05-09T01:44:33.055Z,942.5
2017-05-09T01:45:41.049Z,942.5
2017-05-09T01:46:49.136Z,942.5
2017-05-09T01:47:57.222Z,942.4
2017-05-09T01:49:05.310Z,942.4
2017-05-09T01:50:13.512Z,942.4
2017-05-09T01:51:21.480Z,942.4
2017-05-09T01:52:29.566Z,942.3
2017-05-09T01:53:37.653Z,942.3
2017-05-09T01:54:45.773Z,942.3
2017-05-09T01:55:53.947Z,942.3
2017-05-09T01:57:01.914Z,942.3
2017-05-09T01:58:09.999Z,942.3
2017-05-09T01:59:18.084Z,942.3
2017-05-09T02:00:26.338Z,942.3
2017-05-09T02:01:34.517Z,942.3
2017-05-09T02:02:42.343Z,942.3
2017-05-09T02:03:50.433Z,942.3
2017-05-09T02:04:58.520Z,942.3
2017-05-09T02:06:06.606Z,942.3
2017-05-09T02:07:14.812Z,942.3
2017-05-09T02:08:22.776Z,942.3
2017-05-09T02:09:30.864Z,942.3
2017-05-09T02:10:38.949Z,942.3
2017-05-09T02:11:47.043Z,942.3
2017-05-09T02:12:55.244Z,942.3
2017-05-09T02:14:03.211Z,942.3
2017-05-09T02:15:11.298Z,942.3
2017-05-09T02:16:19.442Z,942.2
2017-05-09T02:17:27.631Z,942.2
2017-05-09T02:18:35.852Z,942.2
2017-05-09T02:19:43.640Z,942.3
2017-05-09T02:20:51.728Z,942.2
2017-05-09T02:21:59.815Z,942.3
2017-05-09T02:23:07.903Z,942.3
2017-05-09T02:24:16.131Z,942.3
2017-05-09T02:25:24.075Z,942.3
2017-05-09T02:26:32.161Z,942.3
2017-05-09T02:27:40.250Z,942.3
2017-05-09T02:28:48.333Z,942.3
2017-05-09T02:29:56.550Z,942.3
2017-05-09T02:31:04.513Z,942.3
2017-05-09T02:32:12.648Z,942.3
2017-05-09T02:33:20.677Z,942.3
2017-05-09T02:34:28.768Z,942.3
2017-05-09T02:35:36.972Z,942.3
2017-05-09T02:36:44.939Z,942.3
2017-05-09T02:37:53.024Z,942.3
2017-05-09T02:39:01.109Z,942.3
2017-05-09T02:40:09.195Z,942.3
2017-05-09T02:41:17.541Z,942.2
2017-05-09T02:42:25.366Z,942.3
2017-05-09T02:43:33.456Z,942.3
2017-05-09T02:44:41.542Z,942.3
2017-05-09T02:45:49.627Z,942.3
2017-05-09T02:46:57.834Z,942.3
2017-05-09T02:48:05.854Z,942.3
2017-05-09T02:49:13.890Z,942.3
2017-05-09T02:50:21.968Z,942.3
2017-05-09T02:51:30.054Z,942.3
2017-05-09T02:52:38.198Z,942.3
2017-05-09T02:53:46.228Z,942.3
2017-05-09T02:54:54.313Z,942.3
2017-05-09T02:56:02.401Z,942.3
2017-05-09T02:57:10.485Z,942.3
2017-05-09T02:58:18.692Z,942.3
2017-05-09T02:59:26.659Z,942.3
2017-05-09T03:00:34.742Z,942.3
2017-05-09T03:01:42.829Z,942.3
2017-05-09T03:02:50.914Z,942.3
2017-05-09T03:03:59.240Z,942.3
2017-05-09T03:05:07.219Z,942.3
2017-05-09T03:06:15.174Z,942.3
2017-05-09T03:07:23.257Z,942.3
2017-05-09T03:08:31.342Z,942.3
2017-05-09T03:09:39.484Z,942.3
2017-05-09T03:10:47.555Z,942.3
2017-05-09T03:11:55.599Z,942.2
2017-05-09T03:13:03.693Z,942.3
2017-05-09T03:14:11.779Z,942.3
2017-05-09T03:15:19.989Z,942.2
2017-05-09T03:16:27.949Z,942.2
2017-05-09T03:17:36.036Z,942.2
2017-05-09T03:18:44.134Z,942.2
2017-05-09T03:19:52.335Z,942.2
2017-05-09T03:21:00.452Z,942.2
2017-05-09T03:22:08.499Z,942.2
2017-05-09T03:23:16.502Z,942.2
2017-05-09T03:24:24.558Z,942.2
2017-05-09T03:25:32.644Z,942.2
2017-05-09T03:26:40.848Z,942.2
2017-05-09T03:27:48.812Z,942.2
2017-05-09T03:28:56.899Z,942.2
2017-05-09T03:30:04.987Z,942.2
2017-05-09T03:31:13.072Z,942.2
2017-05-09T03:32:21.278Z,942.2
2017-05-09T03:33:29.244Z,942.1
2017-05-09T03:34:37.331Z,942.1
2017-05-09T03:35:45.474Z,942.1
2017-05-09T03:36:53.500Z,942.1
2017-05-09T03:38:01.855Z,942.1
2017-05-09T03:39:09.743Z,942.1
2017-05-09T03:40:17.758Z,942.1
2017-05-09T03:41:25.844Z,942.1
2017-05-09T03:42:33.931Z,942.1
2017-05-09T03:43:42.137Z,942.1
2017-05-09T03:44:50.183Z,942.1
2017-05-09T03:45:58.186Z,942.1
2017-05-09T03:47:06.271Z,942.1
2017-05-09T03:48:14.358Z,942.1
2017-05-09T03:49:22.506Z,942.1
2017-05-09T03:50:31.525Z,942.2
2017-05-09T03:51:38.735Z,942.1
2017-05-09T03:52:46.701Z,942.1
2017-05-09T03:53:54.787Z,942.1
2017-05-09T03:55:03.173Z,942.1
2017-05-09T03:56:11.144Z,942.1
2017-05-09T03:57:19.040Z,942.0
2017-05-09T03:58:27.126Z,942.0
2017-05-09T03:59:35.212Z,942.0
2017-05-09T04:00:43.354Z,942.0
2017-05-09T04:01:51.475Z,942.0
2017-05-09T04:02:59.477Z,942.0
2017-05-09T04:04:07.554Z,942.0
2017-05-09T04:05:15.641Z,942.0
2017-05-09T04:06:23.845Z,942.0
2017-05-09T04:07:32.193Z,942.0
2017-05-09T04:08:39.896Z,942.0
2017-05-09T04:09:48.351Z,942.0
2017-05-09T04:10:56.085Z,942.1
2017-05-09T04:12:04.281Z,942.0
2017-05-09T04:13:12.238Z,942.1
2017-05-09T04:14:20.323Z,942.1
2017-05-09T04:15:28.410Z,942.1
2017-05-09T04:16:36.494Z,942.1
2017-05-09T04:17:44.702Z,942.1
2017-05-09T04:18:52.697Z,942.0
2017-05-09T04:20:00.755Z,942.0
2017-05-09T04:21:08.842Z,942.1
2017-05-09T04:22:16.926Z,942.1
2017-05-09T04:23:25.138Z,942.1
2017-05-09T04:24:33.115Z,942.1
2017-05-09T04:25:41.187Z,942.1
2017-05-09T04:26:49.274Z,942.1
2017-05-09T04:27:57.358Z,942.1
2017-05-09T04:29:05.602Z,942.1
2017-05-09T04:30:13.530Z,942.1
2017-05-09T04:31:21.615Z,942.1
2017-05-09T04:32:29.699Z,942.1
2017-05-09T04:33:37.783Z,942.1
2017-05-09T04:34:45.989Z,942.1
2017-05-09T04:35:54.076Z,942.1
2017-05-09T04:37:02.042Z,942.1
2017-05-09T04:38:10.126Z,942.1
2017-05-09T04:39:18.332Z,942.1
2017-05-09T04:40:26.418Z,942.1
2017-05-09T04:41:34.384Z,942.1
2017-05-09T04:42:42.467Z,942.2
2017-05-09T04:43:50.551Z,942.1
2017-05-09T04:44:58.674Z,942.2
2017-05-09T04:46:06.841Z,942.2
2017-05-09T04:47:14.807Z,942.2
2017-05-09T04:48:22.892Z,942.2
2017-05-09T04:49:30.979Z,942.2
2017-05-09T04:50:39.082Z,942.1
2017-05-09T04:51:47.205Z,942.1
2017-05-09T04:52:55.352Z,942.1
2017-05-09T04:54:03.318Z,942.1
2017-05-09T04:55:11.522Z,942.1
2017-05-09T04:56:19.487Z,942.1
2017-05-09T04:57:27.694Z,942.1
2017-05-09T04:58:35.694Z,942.0
2017-05-09T04:59:43.744Z,942.0
2017-05-09T05:00:51.832Z,942.0
2017-05-09T05:01:59.916Z,942.0
2017-05-09T05:03:08.318Z,942.1
2017-05-09T05:04:16.088Z,942.1
2017-05-09T05:05:24.169Z,942.0
2017-05-09T05:06:32.263Z,942.0
2017-05-09T05:07:40.347Z,942.0
2017-05-09T05:08:48.554Z,942.0
2017-05-09T05:09:56.667Z,942.1
2017-05-09T05:11:04.724Z,942.1
2017-05-09T05:12:12.688Z,942.1
2017-05-09T05:13:20.773Z,942.1
2017-05-09T05:14:28.979Z,942.1
2017-05-09T05:15:37.075Z,942.1
2017-05-09T05:16:45.034Z,942.1
2017-05-09T05:17:53.149Z,942.1
2017-05-09T05:19:01.210Z,942.1
2017-05-09T05:20:09.419Z,942.1
2017-05-09T05:21:17.373Z,942.1
2017-05-09T05:22:25.465Z,942.1
2017-05-09T05:23:33.544Z,942.1
2017-05-09T05:24:41.696Z,942.1
2017-05-09T05:25:49.842Z,942.1
2017-05-09T05:26:57.862Z,942.0
2017-05-09T05:28:05.900Z,942.1
2017-05-09T05:29:14.072Z,942.0
2017-05-09T05:30:22.057Z,942.0
2017-05-09T05:31:30.275Z,942.0
2017-05-09T05:32:38.272Z,942.0
2017-05-09T05:33:46.335Z,942.0
2017-05-09T05:34:54.445Z,942.0
2017-05-09T05:36:02.500Z,942.0
2017-05-09T05:37:12.325Z,942.0
2017-05-09T05:38:20.390Z,942.0
2017-05-09T05:39:28.369Z,941.9
2017-05-09T05:40:36.452Z,942.0
2017-05-09T05:41:44.537Z,942.0
2017-05-09T05:42:53.023Z,941.9
2017-05-09T05:44:00.718Z,942.0
2017-05-09T05:45:08.804Z,942.0
2017-05-09T05:46:16.891Z,942.0
2017-05-09T05:47:24.975Z,942.0
2017-05-09T05:48:33.179Z,942.0
2017-05-09T05:49:41.312Z,942.0
2017-05-09T05:50:49.230Z,942.0
2017-05-09T05:51:57.317Z,942.0
2017-05-09T05:53:05.401Z,942.0
2017-05-09T05:54:14.604Z,942.0
2017-05-09T05:55:21.633Z,942.0
2017-05-09T05:56:29.708Z,942.0
2017-05-09T05:57:37.742Z,942.0
2017-05-09T05:58:45.946Z,942.0
2017-05-09T05:59:54.033Z,942.0
2017-05-09T06:01:01.996Z,942.0
2017-05-09T06:02:10.083Z,942.0
2017-05-09T06:03:18.170Z,942.0
2017-05-09T06:04:26.253Z,942.0
2017-05-09T06:05:39.846Z,942.0
2017-05-09T06:06:42.612Z,942.0
2017-05-09T06:07:50.513Z,942.0
2017-05-09T06:08:58.591Z,942.0
2017-05-09T06:10:06.680Z,942.0
2017-05-09T06:11:14.824Z,941.9
2017-05-09T06:12:22.863Z,942.0
2017-05-09T06:13:31.042Z,942.0
2017-05-09T06:14:39.161Z,942.0
2017-05-09T06:15:47.116Z,941.9
2017-05-09T06:16:55.337Z,942.0
2017-05-09T06:18:03.292Z,942.0
2017-05-09T06:19:11.388Z,941.9
2017-05-09T06:20:19.477Z,941.9
2017-05-09T06:21:27.566Z,941.9
2017-05-09T06:22:35.769Z,941.9
2017-05-09T06:23:43.830Z,941.9
2017-05-09T06:24:51.820Z,941.9
2017-05-09T06:25:59.906Z,942.0
2017-05-09T06:27:07.990Z,941.9
2017-05-09T06:28:16.226Z,942.0
2017-05-09T06:29:24.239Z,942.0
2017-05-09T06:30:32.413Z,942.0
2017-05-09T06:31:40.341Z,942.0
2017-05-09T06:32:48.485Z,942.0
2017-05-09T06:33:56.557Z,942.0
2017-05-09T06:35:04.596Z,942.0
2017-05-09T06:36:12.674Z,942.0
2017-05-09T06:37:20.759Z,942.1
2017-05-09T06:38:28.846Z,942.1
2017-05-09T06:39:37.051Z,942.1
2017-05-09T06:40:45.120Z,942.1
2017-05-09T06:41:53.126Z,942.1
2017-05-09T06:43:01.186Z,942.1
2017-05-09T06:44:09.273Z,942.1
2017-05-09T06:45:17.478Z,942.1
2017-05-09T06:46:25.775Z,942.1
2017-05-09T06:47:33.585Z,942.1
2017-05-09T06:48:41.611Z,942.1
2017-05-09T06:49:49.696Z,942.1
2017-05-09T06:50:57.901Z,942.1
2017-05-09T06:52:05.878Z,942.1
2017-05-09T06:53:13.953Z,942.1
2017-05-09T06:54:22.038Z,942.1
2017-05-09T06:55:30.123Z,942.1
2017-05-09T06:56:38.326Z,942.1
2017-05-09T06:57:46.443Z,942.1
2017-05-09T06:58:54.378Z,942.1
2017-05-09T07:00:02.463Z,942.1
2017-05-09T07:01:10.546Z,942.1
2017-05-09T07:02:18.755Z,942.1
2017-05-09T07:03:26.718Z,942.1
2017-05-09T07:04:34.808Z,942.1
2017-05-09T07:05:42.896Z,942.1
2017-05-09T07:06:50.978Z,942.1
2017-05-09T07:07:59.184Z,942.1
2017-05-09T07:09:07.150Z,942.1
2017-05-09T07:10:15.237Z,942.1
2017-05-09T07:11:23.320Z,942.1
2017-05-09T07:12:31.404Z,942.1
2017-05-09T07:13:39.546Z,942.1
2017-05-09T07:14:47.659Z,942.1
2017-05-09T07:15:55.659Z,942.1
2017-05-09T07:17:03.748Z,942.0
2017-05-09T07:18:11.952Z,942.1
2017-05-09T07:19:20.035Z,942.1
2017-05-09T07:20:28.004Z,942.0
2017-05-09T07:21:36.083Z,942.0
2017-05-09T07:22:44.169Z,942.0
2017-05-09T07:23:52.252Z,942.0
2017-05-09T07:25:00.631Z,942.0
2017-05-09T07:26:08.617Z,942.0
2017-05-09T07:27:16.508Z,942.0
2017-05-09T07:28:24.594Z,942.0
2017-05-09T07:29:32.679Z,942.0
2017-05-09T07:30:40.884Z,942.0
2017-05-09T07:31:48.851Z,942.0
2017-05-09T07:32:56.945Z,942.0
2017-05-09T07:34:05.137Z,942.0
2017-05-09T07:35:13.100Z,942.0
2017-05-09T07:36:26.697Z,942.0
2017-05-09T07:37:29.299Z,941.9
2017-05-09T07:38:37.393Z,941.9
2017-05-09T07:39:45.442Z,941.9
2017-05-09T07:40:53.536Z,942.0
2017-05-09T07:42:01.741Z,941.9
2017-05-09T07:43:09.706Z,941.9
2017-05-09T07:44:17.791Z,941.9
2017-05-09T07:45:25.875Z,941.9
2017-05-09T07:46:33.963Z,941.9
2017-05-09T07:47:42.173Z,941.9
2017-05-09T07:48:50.261Z,941.9
2017-05-09T07:49:58.342Z,941.9
2017-05-09T07:51:06.308Z,941.9
2017-05-09T07:52:14.391Z,941.9
2017-05-09T07:53:22.533Z,941.9
2017-05-09T07:54:30.594Z,941.8
2017-05-09T07:55:38.694Z,941.8
2017-05-09T07:56:46.731Z,941.8
2017-05-09T07:57:54.816Z,941.8
2017-05-09T07:59:03.021Z,941.8
2017-05-09T08:00:10.992Z,941.8
2017-05-09T08:01:19.077Z,941.8
2017-05-09T08:02:27.162Z,941.8
2017-05-09T08:03:35.248Z,941.8
2017-05-09T08:04:43.454Z,941.8
2017-05-09T08:05:51.656Z,941.8
2017-05-09T08:06:59.506Z,941.8
2017-05-09T08:08:07.590Z,941.8
2017-05-09T08:09:15.673Z,941.7
2017-05-09T08:10:23.879Z,941.8
2017-05-09T08:11:31.847Z,941.7
2017-05-09T08:12:39.936Z,941.7
2017-05-09T08:13:48.027Z,941.7
2017-05-09T08:14:56.115Z,941.7
2017-05-09T08:16:04.254Z,941.7
2017-05-09T08:17:12.283Z,941.7
2017-05-09T08:18:20.368Z,941.7
2017-05-09T08:19:28.455Z,941.7
2017-05-09T08:20:36.539Z,941.7
2017-05-09T08:21:44.749Z,941.7
2017-05-09T08:22:52.737Z,941.8
2017-05-09T08:24:00.797Z,941.8
2017-05-09T08:25:08.884Z,941.8
2017-05-09T08:26:16.972Z,941.8
2017-05-09T08:27:25.174Z,941.8
2017-05-09T08:28:33.175Z,941.8
2017-05-09T08:29:41.270Z,941.8
2017-05-09T08:30:49.309Z,941.8
2017-05-09T08:31:57.394Z,941.8
2017-05-09T08:33:05.538Z,941.8
2017-05-09T08:34:13.566Z,941.9
2017-05-09T08:35:21.652Z,941.9
2017-05-09T08:36:29.736Z,941.8
2017-05-09T08:37:37.945Z,941.9
2017-05-09T08:38:46.025Z,941.9
2017-05-09T08:39:54.102Z,941.9
2017-05-09T08:41:02.078Z,941.9
2017-05-09T08:42:10.165Z,941.9
2017-05-09T08:43:18.251Z,941.9
2017-05-09T08:44:26.454Z,941.8
2017-05-09T08:45:34.425Z,941.9
2017-05-09T08:46:42.517Z,941.9
2017-05-09T08:47:50.588Z,941.9
2017-05-09T08:48:58.679Z,941.9
2017-05-09T08:50:06.882Z,941.9
2017-05-09T08:51:14.847Z,941.9
2017-05-09T08:52:22.933Z,941.9
2017-05-09T08:53:31.139Z,941.9
2017-05-09T08:54:39.109Z,941.9
2017-05-09T08:55:47.249Z,942.0
2017-05-09T08:56:55.375Z,941.9
2017-05-09T08:58:03.369Z,942.0
2017-05-09T08:59:11.455Z,942.0
2017-05-09T09:00:19.538Z,942.0
2017-05-09T09:01:27.745Z,942.0
2017-05-09T09:02:35.709Z,942.0
2017-05-09T09:03:43.795Z,942.0
2017-05-09T09:04:51.886Z,942.0
2017-05-09T09:05:59.966Z,942.0
2017-05-09T09:07:08.362Z,942.0
2017-05-09T09:08:16.292Z,942.0
2017-05-09T09:09:24.278Z,942.0
2017-05-09T09:10:32.308Z,942.0
2017-05-09T09:11:40.393Z,942.0
2017-05-09T09:12:48.601Z,941.9
2017-05-09T09:13:56.566Z,942.0
2017-05-09T09:15:04.649Z,942.0
2017-05-09T09:16:12.740Z,942.0
2017-05-09T09:17:20.826Z,942.0
2017-05-09T09:18:29.030Z,942.0
2017-05-09T09:19:36.996Z,942.0
2017-05-09T09:20:45.090Z,941.9
2017-05-09T09:21:53.173Z,942.0
2017-05-09T09:23:01.257Z,941.9
2017-05-09T09:24:09.570Z,941.9
2017-05-09T09:25:17.715Z,941.9
2017-05-09T09:26:25.517Z,941.9
2017-05-09T09:27:33.607Z,941.9
2017-05-09T09:28:41.693Z,941.9
2017-05-09T09:29:51.662Z,941.9
2017-05-09T09:30:58.092Z,941.9
2017-05-09T09:32:05.945Z,941.9
2017-05-09T09:33:14.203Z,941.8
2017-05-09T09:34:22.115Z,941.8
2017-05-09T09:35:30.322Z,941.8
2017-05-09T09:36:38.302Z,941.8
2017-05-09T09:37:46.410Z,941.9
2017-05-09T09:38:54.461Z,941.8
2017-05-09T09:40:02.550Z,941.9
2017-05-09T09:41:10.754Z,941.8
2017-05-09T09:42:18.718Z,941.8
2017-05-09T09:43:26.808Z,941.8
2017-05-09T09:44:34.896Z,941.8
2017-05-09T09:45:42.982Z,941.8
2017-05-09T09:46:51.187Z,941.8
2017-05-09T09:47:59.289Z,941.8
2017-05-09T09:49:07.238Z,941.8
2017-05-09T09:50:15.322Z,941.8
2017-05-09T09:51:23.409Z,941.8
2017-05-09T09:52:31.614Z,941.9
2017-05-09T09:53:39.583Z,941.8
2017-05-09T09:54:47.664Z,941.8
2017-05-09T09:55:55.751Z,941.8
2017-05-09T09:57:03.956Z,941.7
2017-05-09T09:58:12.169Z,941.8
2017-05-09T09:59:20.204Z,941.7
2017-05-09T10:00:28.102Z,941.8
2017-05-09T10:01:36.179Z,941.7
2017-05-09T10:02:44.263Z,941.7
2017-05-09T10:03:52.467Z,941.7
2017-05-09T10:05:00.537Z,941.7
2017-05-09T10:06:08.613Z,941.6
2017-05-09T10:07:16.611Z,941.6
2017-05-09T10:08:25.693Z,941.6
2017-05-09T10:09:32.899Z,941.6
2017-05-09T10:10:40.872Z,941.6
2017-05-09T10:11:48.957Z,941.6
2017-05-09T10:12:58.095Z,941.6
2017-05-09T10:14:05.128Z,941.6
2017-05-09T10:15:13.504Z,941.5
2017-05-09T10:16:21.488Z,941.6
2017-05-09T10:17:29.386Z,941.7
2017-05-09T10:18:37.471Z,941.6
2017-05-09T10:19:45.556Z,941.7
2017-05-09T10:20:53.762Z,941.7
2017-05-09T10:22:01.730Z,941.7
2017-05-09T10:23:09.815Z,941.7
2017-05-09T10:24:17.901Z,941.6
2017-05-09T10:25:25.987Z,941.7
2017-05-09T10:26:34.193Z,941.7
2017-05-09T10:27:42.159Z,941.7
2017-05-09T10:28:50.393Z,941.7
2017-05-09T10:29:58.329Z,941.7
2017-05-09T10:31:06.416Z,941.7
2017-05-09T10:32:14.622Z,941.7
2017-05-09T10:33:22.587Z,941.7
2017-05-09T10:34:30.673Z,941.7
2017-05-09T10:35:38.760Z,941.7
2017-05-09T10:36:46.852Z,941.7
2017-05-09T10:37:55.054Z,941.7
2017-05-09T10:39:03.124Z,941.7
2017-05-09T10:40:11.104Z,941.8
2017-05-09T10:41:19.188Z,941.7
2017-05-09T10:42:27.273Z,941.7
2017-05-09T10:43:35.417Z,941.7
2017-05-09T10:44:43.567Z,941.7
2017-05-09T10:45:51.534Z,941.7
2017-05-09T10:46:59.620Z,941.7
2017-05-09T10:48:07.708Z,941.6
2017-05-09T10:49:15.930Z,941.7
2017-05-09T10:50:23.876Z,941.6
2017-05-09T10:51:31.968Z,941.6
2017-05-09T10:52:40.050Z,941.6
2017-05-09T10:53:48.134Z,941.6
2017-05-09T10:54:56.343Z,941.6
2017-05-09T10:56:04.417Z,941.5
2017-05-09T10:57:12.392Z,941.5
2017-05-09T10:58:20.479Z,941.6
2017-05-09T10:59:28.565Z,941.6
2017-05-09T11:00:36.771Z,941.5
2017-05-09T11:01:44.739Z,941.5
2017-05-09T11:02:52.825Z,941.5
2017-05-09T11:04:00.914Z,941.5
2017-05-09T11:05:08.999Z,941.5
2017-05-09T11:06:17.301Z,941.5
2017-05-09T11:07:25.330Z,941.5
2017-05-09T11:08:33.256Z,941.5
2017-05-09T11:09:41.340Z,941.5
2017-05-09T11:10:49.427Z,941.4
2017-05-09T11:11:58.638Z,941.4
2017-05-09T11:13:05.632Z,941.4
2017-05-09T11:14:13.686Z,941.4
2017-05-09T11:15:21.774Z,941.4
2017-05-09T11:16:29.978Z,941.4
2017-05-09T11:17:38.064Z,941.4
2017-05-09T11:18:46.029Z,941.4
2017-05-09T11:19:54.115Z,941.4
2017-05-09T11:21:02.204Z,941.4
2017-05-09T11:22:10.283Z,941.4
2017-05-09T11:23:18.662Z,941.4
2017-05-09T11:24:26.627Z,941.3
2017-05-09T11:25:34.578Z,941.4
2017-05-09T11:26:42.634Z,941.3
2017-05-09T11:27:50.725Z,941.3
2017-05-09T11:28:58.863Z,941.3
2017-05-09T11:30:06.891Z,941.3
2017-05-09T11:31:14.975Z,941.3
2017-05-09T11:32:23.184Z,941.3
2017-05-09T11:33:31.152Z,941.3
2017-05-09T11:34:39.357Z,941.3
2017-05-09T11:35:47.321Z,941.2
2017-05-09T11:36:55.412Z,941.3
2017-05-09T11:38:03.497Z,941.3
2017-05-09T11:39:11.578Z,941.2
2017-05-09T11:40:19.829Z,941.2
2017-05-09T11:41:27.792Z,941.2
2017-05-09T11:42:35.840Z,941.2
2017-05-09T11:43:43.927Z,941.2
2017-05-09T11:44:52.022Z,941.2
2017-05-09T11:46:00.217Z,941.3
2017-05-09T11:47:08.241Z,941.3
2017-05-09T11:48:16.390Z,941.3
2017-05-09T11:49:24.355Z,941.2
2017-05-09T11:50:32.442Z,941.3
2017-05-09T11:51:40.584Z,941.2
2017-05-09T11:52:48.615Z,941.2
2017-05-09T11:53:56.701Z,941.2
2017-05-09T11:55:04.792Z,941.2
2017-05-09T11:56:12.877Z,941.2
2017-05-09T11:57:21.198Z,941.2
2017-05-09T11:58:29.161Z,941.2
2017-05-09T11:59:37.130Z,941.2
2017-05-09T12:00:45.221Z,941.2
2017-05-09T12:01:53.302Z,941.1
2017-05-09T12:03:01.450Z,941.1
2017-05-09T12:04:09.599Z,941.1
2017-05-09T12:05:17.566Z,941.2
2017-05-09T12:06:25.650Z,941.1
2017-05-09T12:07:33.739Z,941.1
2017-05-09T12:08:42.018Z,941.1
2017-05-09T12:09:49.911Z,941.1
2017-05-09T12:10:57.998Z,941.1
2017-05-09T12:12:06.082Z,941.1
2017-05-09T12:13:14.170Z,941.1
2017-05-09T12:14:22.397Z,941.0
2017-05-09T12:15:30.452Z,941.0
2017-05-09T12:16:38.431Z,941.0
2017-05-09T12:17:46.515Z,941.0
2017-05-09T12:18:54.600Z,941.0
2017-05-09T12:20:02.805Z,941.0
2017-05-09T12:21:10.773Z,941.0
2017-05-09T12:22:18.861Z,941.0
2017-05-09T12:23:26.950Z,941.0
2017-05-09T12:24:35.045Z,940.9
2017-05-09T12:25:43.252Z,940.9
2017-05-09T12:26:51.216Z,940.9
2017-05-09T12:27:59.306Z,940.9
2017-05-09T12:29:07.388Z,940.9
2017-05-09T12:30:15.475Z,940.9
2017-05-09T12:31:23.698Z,940.9
2017-05-09T12:32:31.729Z,940.9
2017-05-09T12:33:39.742Z,940.9
2017-05-09T12:34:47.828Z,940.9
2017-05-09T12:35:56.035Z,940.9
2017-05-09T12:37:04.249Z,940.9
2017-05-09T12:38:12.088Z,940.9
2017-05-09T12:39:20.179Z,940.9
2017-05-09T12:40:28.267Z,940.9
2017-05-09T12:41:36.355Z,940.9
2017-05-09T12:42:44.666Z,940.9
2017-05-09T12:43:52.529Z,940.9
2017-05-09T12:45:00.670Z,940.8
2017-05-09T12:46:08.704Z,940.9
2017-05-09T12:47:16.790Z,940.9
2017-05-09T12:48:24.997Z,940.9
2017-05-09T12:49:33.043Z,940.8
2017-05-09T12:50:41.055Z,940.8
2017-05-09T12:51:49.262Z,940.8
2017-05-09T12:52:57.237Z,940.8
2017-05-09T12:54:05.377Z,940.8
2017-05-09T12:55:13.412Z,940.8
2017-05-09T12:56:21.494Z,940.8
2017-05-09T12:57:29.580Z,940.8
2017-05-09T12:58:37.667Z,940.8
2017-05-09T12:59:45.955Z,940.7
2017-05-09T13:00:53.841Z,940.8
2017-05-09T13:02:01.928Z,940.7
2017-05-09T13:03:10.020Z,940.7
2017-05-09T13:04:18.107Z,940.7
2017-05-09T13:05:26.362Z,940.7
2017-05-09T13:06:34.326Z,940.7
2017-05-09T13:07:42.424Z,940.7
2017-05-09T13:08:50.454Z,940.6
2017-05-09T13:09:58.540Z,940.6
2017-05-09T13:11:06.747Z,940.6
2017-05-09T13:12:14.715Z,940.6
2017-05-09T13:13:22.802Z,940.6
2017-05-09T13:14:30.891Z,940.6
2017-05-09T13:15:38.976Z,940.6
2017-05-09T13:16:47.310Z,940.6
2017-05-09T13:17:55.148Z,940.6
2017-05-09T13:19:03.234Z,940.6
2017-05-09T13:20:11.319Z,940.6
2017-05-09T13:21:20.404Z,940.6
2017-05-09T13:22:27.655Z,940.6
2017-05-09T13:23:35.763Z,940.6
2017-05-09T13:24:43.669Z,940.6
2017-05-09T13:25:51.755Z,940.6
2017-05-09T13:26:59.842Z,940.5
2017-05-09T13:28:07.984Z,940.6
2017-05-09T13:29:16.040Z,940.5
2017-05-09T13:30:24.100Z,940.5
2017-05-09T13:31:32.187Z,940.5
2017-05-09T13:32:40.274Z,940.5
2017-05-09T13:33:48.483Z,940.5
2017-05-09T13:34:56.449Z,940.5
2017-05-09T13:36:04.533Z,940.5
2017-05-09T13:37:12.620Z,940.5
2017-05-09T13:38:20.706Z,940.4
2017-05-09T13:39:28.966Z,940.4
2017-05-09T13:40:37.030Z,940.4
2017-05-09T13:41:44.966Z,940.4
2017-05-09T13:42:53.062Z,940.4
2017-05-09T13:44:01.147Z,940.4
2017-05-09T13:45:09.353Z,940.4
2017-05-09T13:46:17.344Z,940.3
2017-05-09T13:47:25.434Z,940.4
2017-05-09T13:48:33.491Z,940.4
2017-05-09T13:49:41.579Z,940.3
2017-05-09T13:50:49.888Z,940.3
2017-05-09T13:51:57.752Z,940.3
2017-05-09T13:53:05.842Z,940.3
2017-05-09T13:54:13.928Z,940.2
2017-05-09T13:55:22.135Z,940.2
2017-05-09T13:56:30.309Z,940.2
2017-05-09T13:57:38.269Z,940.2
2017-05-09T13:58:46.273Z,940.2
2017-05-09T13:59:54.360Z,940.2
2017-05-09T14:01:02.448Z,940.2
2017-05-09T14:02:10.590Z,940.2
2017-05-09T14:03:18.622Z,940.2
2017-05-09T14:04:26.709Z,940.2
2017-05-09T14:05:34.793Z,940.2
2017-05-09T14:06:42.878Z,940.1
2017-05-09T14:07:51.251Z,940.1
2017-05-09T14:08:59.053Z,940.1
2017-05-09T14:10:07.140Z,940.1
2017-05-09T14:11:15.349Z,940.1
2017-05-09T14:12:23.321Z,940.1
2017-05-09T14:13:31.544Z,940.1
2017-05-09T14:14:39.528Z,940.1
2017-05-09T14:15:47.573Z,940.1
2017-05-09T14:16:55.661Z,940.1
2017-05-09T14:18:03.750Z,940.1
2017-05-09T14:19:11.890Z,940.1
2017-05-09T14:20:19.925Z,940.0
2017-05-09T14:21:28.039Z,940.1
2017-05-09T14:22:36.097Z,940.1
2017-05-09T14:23:44.183Z,940.1
2017-05-09T14:24:52.531Z,940.1
2017-05-09T14:26:00.358Z,940.0
2017-05-09T14:27:08.563Z,940.0
2017-05-09T14:28:16.530Z,940.0
2017-05-09T14:29:24.619Z,940.0
2017-05-09T14:30:32.758Z,940.0
2017-05-09T14:31:40.788Z,940.0
2017-05-09T14:32:48.878Z,940.0
2017-05-09T14:33:56.963Z,940.0
2017-05-09T14:35:05.059Z,940.0
2017-05-09T14:36:13.265Z,940.0